createdAt,value
2022-10-04T00:05:17.867Z,4174.3
2022-10-04T00:11:24.041Z,4170.2
2022-10-04T00:17:02.070Z,4170.7
2022-10-04T00:23:21.789Z,4175.3
2022-10-04T00:29:02.090Z,4168.9
2022-10-04T00:34:37.434Z,4173.1
2022-10-04T00:40:12.651Z,4171.4
2022-10-04T00:45:48.569Z,4167.7
2022-10-04T00:51:23.594Z,4171.3
2022-10-04T00:57:05.717Z,4169.4
2022-10-04T01:03:04.048Z,4168.2
2022-10-04T01:08:48.384Z,4169.7
2022-10-04T01:14:42.086Z,4169.2
2022-10-04T01:20:23.506Z,4171.3
2022-10-04T01:26:19.108Z,4171.3
2022-10-04T01:31:55.489Z,4170.1
2022-10-04T01:38:03.173Z,4168.1
2022-10-04T01:43:45.935Z,4168.9
2022-10-04T01:49:20.703Z,4167.6
2022-10-04T01:55:04.251Z,4166.2
2022-10-04T02:00:40.208Z,4165.4
2022-10-04T02:06:18.601Z,4165.2
2022-10-04T02:11:59.368Z,4166.4
2022-10-04T02:17:35.448Z,4165.6
2022-10-04T02:23:10.535Z,4162.4
2022-10-04T02:28:56.627Z,4164.2
2022-10-04T02:34:40.428Z,4165.4
2022-10-04T02:40:16.657Z,4163.5
2022-10-04T02:45:55.301Z,4164
2022-10-04T02:51:37.681Z,4163.5
2022-10-04T02:57:20.647Z,4162.7
2022-10-04T03:03:06.959Z,4163.9
2022-10-04T03:08:52.347Z,4164
2022-10-04T03:14:39.186Z,4161.5
2022-10-04T03:20:38.457Z,4163.4
2022-10-04T03:26:13.509Z,4161.2
2022-10-04T03:31:49.600Z,4162.2
2022-10-04T03:37:45.447Z,4162.4
2022-10-04T03:43:22.347Z,4159
2022-10-04T03:48:57.189Z,4161.2
2022-10-04T03:54:35.349Z,4158.7
2022-10-04T04:00:13.843Z,4161.9
2022-10-04T04:06:15.315Z,4158
2022-10-04T04:12:20.794Z,4157.5
2022-10-04T04:17:58.603Z,4158.2
2022-10-04T04:23:33.709Z,4154.5
2022-10-04T04:29:08.684Z,4159
2022-10-04T04:34:46.029Z,4156.7
2022-10-04T04:40:32.546Z,4153
2022-10-04T04:46:29.896Z,4157.4
2022-10-04T04:52:06.141Z,4156.7
2022-10-04T04:57:41.130Z,4156.5
2022-10-04T05:03:16.270Z,4153
2022-10-04T05:08:51.096Z,4152.7
2022-10-04T05:14:34.589Z,4151.8
2022-10-04T05:20:09.448Z,4153
2022-10-04T05:26:06.033Z,4155.2
2022-10-04T05:31:44.311Z,4152
2022-10-04T05:37:29.360Z,4152.3
2022-10-04T05:43:05.051Z,4155
2022-10-04T05:48:39.744Z,4151.5
2022-10-04T05:54:14.722Z,4150.5
2022-10-04T05:59:49.471Z,4151.7
2022-10-04T06:05:33.906Z,4152.5
2022-10-04T06:11:08.917Z,4150.3
2022-10-04T06:16:44.695Z,4150
2022-10-04T06:22:19.941Z,4152
2022-10-04T06:27:55.509Z,4155
2022-10-04T06:33:31.737Z,4161.9
2022-10-04T06:39:06.798Z,4161
2022-10-04T06:44:47.722Z,4165.1
2022-10-04T06:50:22.692Z,4165.9
2022-10-04T06:55:57.529Z,4160.9
2022-10-04T07:01:34.309Z,4164.4
2022-10-04T07:07:10.533Z,4167.7
2022-10-04T07:12:45.515Z,4172.1
2022-10-04T07:18:20.473Z,4168.2
2022-10-04T07:23:56.068Z,4169.6
2022-10-04T07:29:30.953Z,4177.5
2022-10-04T07:35:13.785Z,4181.3
2022-10-04T07:40:49.006Z,4181.1
2022-10-04T07:46:33.317Z,4190.2
2022-10-04T07:52:08.165Z,4187.3
2022-10-04T07:57:43.652Z,4201.9
2022-10-04T08:03:19.437Z,4205.3
2022-10-04T08:09:00.418Z,4209.1
2022-10-04T08:14:58.874Z,4210.4
2022-10-04T08:20:34.952Z,4211.8
2022-10-04T08:26:10.316Z,4205.3
2022-10-04T08:31:45.777Z,4202.4
2022-10-04T08:37:23.032Z,4215.6
2022-10-04T08:42:58.281Z,4208.8
2022-10-04T08:48:33.641Z,4211.6
2022-10-04T08:54:09.069Z,4207.9
2022-10-04T08:59:44.167Z,4222
2022-10-04T09:05:49.378Z,4214
2022-10-04T09:11:28.085Z,4210.8
2022-10-04T09:17:03.520Z,4220.3
2022-10-04T09:24:11.142Z,4215.1
2022-10-04T09:29:51.468Z,4209.4
2022-10-04T09:35:32.332Z,4218.7
2022-10-04T09:41:08.499Z,4218.5
2022-10-04T09:46:57.038Z,4207.1
2022-10-04T09:52:50.486Z,4215.6
2022-10-04T09:58:25.871Z,4211.1
2022-10-04T10:04:07.505Z,4222.8
2022-10-04T10:09:59.008Z,4215
2022-10-04T10:15:47.275Z,4218.5
2022-10-04T10:21:37.254Z,4217.5
2022-10-04T10:27:12.436Z,4209.1
2022-10-04T10:32:50.303Z,4214
2022-10-04T10:38:33.067Z,4211.6
2022-10-04T10:44:28.032Z,4224.2
2022-10-04T10:50:25.347Z,4222.8
2022-10-04T10:56:00.918Z,4218
2022-10-04T11:01:37.307Z,4216.6
2022-10-04T11:07:15.071Z,4216.5
2022-10-04T11:12:50.167Z,4213
2022-10-04T11:18:46.914Z,4226
2022-10-04T11:24:22.212Z,4212.1
2022-10-04T11:29:58.291Z,4221.5
2022-10-04T11:35:37.182Z,4216.3
2022-10-04T11:41:12.167Z,4219.7
2022-10-04T11:47:14.019Z,4215.8
2022-10-04T11:53:12.709Z,4226.5
2022-10-04T11:59:05.907Z,4220.2
2022-10-04T12:04:42.500Z,4218.7
2022-10-04T12:10:17.658Z,4224.9
2022-10-04T12:15:53.753Z,4208.9
2022-10-04T12:21:51.786Z,4214.5
2022-10-04T12:27:27.853Z,4223.3
2022-10-04T12:33:02.737Z,4219.7
2022-10-04T12:38:48.710Z,4220.3
2022-10-04T12:44:35.597Z,4218
2022-10-04T12:50:10.861Z,4211.3
2022-10-04T12:55:51.064Z,4214.6
2022-10-04T13:01:48.541Z,4219.7
2022-10-04T13:08:26.871Z,4228.4
2022-10-04T13:14:02.381Z,4226
2022-10-04T13:19:42.432Z,4221
2022-10-04T13:25:17.881Z,4222.7
2022-10-04T13:30:52.890Z,4225.4
2022-10-04T13:37:14.819Z,4227.5
2022-10-04T13:42:54.923Z,4220.5
2022-10-04T13:48:39.661Z,4218.7
2022-10-04T13:54:19.635Z,4225
2022-10-04T13:59:54.785Z,4224.2
2022-10-04T14:05:29.737Z,4215
2022-10-04T14:11:26.632Z,4226.5
2022-10-04T14:17:01.682Z,4230.9
2022-10-04T14:22:57.547Z,4225
2022-10-04T14:28:37.429Z,4220.3
2022-10-04T14:34:17.927Z,4222.8
2022-10-04T14:40:01.376Z,4219
2022-10-04T14:45:39.844Z,4231.6
2022-10-04T14:51:19.867Z,4226.7
2022-10-04T14:56:58.450Z,4215.1
2022-10-04T15:02:38.550Z,4216.3
2022-10-04T15:08:17.367Z,4211.5
2022-10-04T15:14:14.308Z,4223.3
2022-10-04T15:19:49.318Z,4215.8
2022-10-04T15:25:45.896Z,4215.6
2022-10-04T15:32:00.344Z,4217.8
2022-10-04T15:38:14.872Z,4207.1
2022-10-04T15:44:31.505Z,4209.8
2022-10-04T15:50:31.153Z,4204.9
2022-10-04T15:56:14.837Z,4205.3
2022-10-04T16:01:52.220Z,4204.4
2022-10-04T16:07:51.766Z,4203.6
2022-10-04T16:14:00.946Z,4200.9
2022-10-04T16:19:38.852Z,4201.9
2022-10-04T16:25:18.016Z,4201.6
2022-10-04T16:30:57.539Z,4200.7
2022-10-04T16:36:37.244Z,4200.6
2022-10-04T16:42:20.085Z,4200.2
2022-10-04T16:47:59.903Z,4200.1
2022-10-04T16:54:01.732Z,4199.7
2022-10-04T16:59:42.420Z,4198.1
2022-10-04T17:05:23.775Z,4201.2
2022-10-04T17:11:24.897Z,4197.4
2022-10-04T17:17:03.438Z,4198.7
2022-10-04T17:22:43.289Z,4199.1
2022-10-04T17:28:22.729Z,4199.1
2022-10-04T17:34:02.125Z,4200.2
2022-10-04T17:39:42.226Z,4198.9
2022-10-04T17:45:21.683Z,4194.2
2022-10-04T17:51:00.518Z,4198.7
2022-10-04T17:56:40.018Z,4196.9
2022-10-04T18:02:21.679Z,4198.1
2022-10-04T18:08:01.679Z,4196.4
2022-10-04T18:14:03.284Z,4194.7
2022-10-04T18:19:41.173Z,4194.5
2022-10-04T18:25:35.719Z,4194.2
2022-10-04T18:31:11.942Z,4194.7
2022-10-04T18:36:49.270Z,4193
2022-10-04T18:42:52.838Z,4190.3
2022-10-04T18:48:31.916Z,4192.7
2022-10-04T18:54:09.882Z,4192.5
2022-10-04T19:00:05.391Z,4195.7
2022-10-04T19:05:43.612Z,4190.7
2022-10-04T19:11:19.918Z,4190.7
2022-10-04T19:17:33.842Z,4191.9
2022-10-04T19:23:09.995Z,4190
2022-10-04T19:28:48.556Z,4187
2022-10-04T19:34:29.038Z,4189.8
2022-10-04T19:40:43.831Z,4190.7
2022-10-04T19:46:21.010Z,4191.7
2022-10-04T19:52:04.403Z,4189
2022-10-04T19:57:42.409Z,4188.2
2022-10-04T20:03:24.254Z,4184.7
2022-10-04T20:09:12.010Z,4185.7
2022-10-04T20:14:51.751Z,4186.8
2022-10-04T20:20:29.508Z,4186.5
2022-10-04T20:26:25.342Z,4183.6
2022-10-04T20:32:02.249Z,4186.2
2022-10-04T20:37:45.955Z,4184.5
2022-10-04T20:43:31.962Z,4183
2022-10-04T20:49:07.115Z,4184.7
2022-10-04T20:54:54.323Z,4182
2022-10-04T21:00:29.358Z,4183.1
2022-10-04T21:06:18.124Z,4182.8
2022-10-04T21:11:56.242Z,4181
2022-10-04T21:17:32.644Z,4182.6
2022-10-04T21:23:07.632Z,4182.3
2022-10-04T21:28:45.060Z,4181
2022-10-04T21:34:59.791Z,4181
2022-10-04T21:40:37.679Z,4180.3
2022-10-04T21:46:22.233Z,4183.5
2022-10-04T21:52:04.846Z,4178.8
2022-10-04T21:57:39.873Z,4178.8
2022-10-04T22:03:48.816Z,4180.6
2022-10-04T22:09:23.929Z,4179
2022-10-04T22:14:58.637Z,4179
2022-10-04T22:21:00.878Z,4177.6
2022-10-04T22:26:49.859Z,4177.1
2022-10-04T22:32:37.098Z,4178.1
2022-10-04T22:38:34.138Z,4177.1
2022-10-04T22:44:15.392Z,4175.8
2022-10-04T22:50:11.475Z,4177.5
2022-10-04T22:55:47.270Z,4175.3
2022-10-04T23:01:29.759Z,4175.3
2022-10-04T23:07:07.084Z,4174.8
2022-10-04T23:13:03.878Z,4174.1
2022-10-04T23:18:37.604Z,4174.1
2022-10-04T23:24:18.375Z,4175.1
2022-10-04T23:30:01.574Z,4175.1
2022-10-04T23:37:33.554Z,4173.9
2022-10-04T23:43:09.201Z,4168.7
2022-10-04T23:48:47.368Z,4172.9
2022-10-04T23:54:22.210Z,4172.8
